Time;durP1;ratioP1;P1;durP2;ratioP2;P2;SDS_P1;SDS_P2;PMS_P1;PMS_P2;Temp;Humidity;BMP_temperature;BMP_pressure;BME280_temperature;BME280_humidity;BME280_pressure;Samples;Min_cycle;Max_cycle;Signal;HPM_P1;HPM_P2
2023/04/23 00:02:21;;;;;;;62.65;26.15;;;7.90;99.90;;;;;;5098179;28;20024;-77
2023/04/23 00:04:51;;;;;;;60.45;25.52;;;7.80;99.90;;;;;;5116197;28;20023;-77
2023/04/23 00:07:19;;;;;;;64.05;24.17;;;7.80;99.90;;;;;;5116190;28;20054;-77
2023/04/23 00:09:45;;;;;;;62.95;25.77;;;7.80;99.90;;;;;;5098025;28;20062;-77
2023/04/23 00:12:11;;;;;;;62.17;23.50;;;7.80;99.90;;;;;;5116109;28;20019;-77
2023/04/23 00:14:37;;;;;;;68.05;28.02;;;7.80;99.90;;;;;;5099576;28;20039;-77
2023/04/23 00:17:03;;;;;;;64.13;25.67;;;7.70;99.90;;;;;;5096034;28;20146;-77
2023/04/23 00:19:28;;;;;;;68.00;27.13;;;7.70;99.90;;;;;;5077586;28;20027;-77
2023/04/23 00:21:54;;;;;;;66.10;26.58;;;7.70;99.90;;;;;;5095488;28;20036;-77
2023/04/23 00:24:20;;;;;;;65.55;25.42;;;7.70;99.90;;;;;;5109176;28;20019;-77
2023/04/23 00:26:46;;;;;;;63.13;25.15;;;7.70;99.90;;;;;;5115924;28;20103;-77
2023/04/23 00:29:11;;;;;;;66.80;27.00;;;7.70;99.90;;;;;;5115891;28;20012;-77
2023/04/23 00:31:37;;;;;;;65.43;26.75;;;7.70;99.90;;;;;;5115920;28;20023;-77
2023/04/23 00:34:03;;;;;;;66.32;25.40;;;7.70;99.90;;;;;;5115840;28;20362;-77
2023/04/23 00:36:28;;;;;;;66.90;26.00;;;8.60;99.90;;;;;;5110533;28;20031;-77
2023/04/23 00:38:54;;;;;;;66.90;26.30;;;7.70;99.90;;;;;;5115540;28;20078;-77
2023/04/23 00:41:20;;;;;;;69.47;27.13;;;7.70;99.90;;;;;;5115448;28;20077;-77
2023/04/23 00:43:46;;;;;;;64.03;25.55;;;7.70;99.90;;;;;;5097722;28;20440;-77
2023/04/23 00:46:12;;;;;;;67.22;26.55;;;7.60;99.90;;;;;;5097359;28;20110;-77
2023/04/23 00:48:39;;;;;;;70.38;27.10;;;7.60;99.90;;;;;;5114286;28;20539;-77
2023/04/23 00:51:05;;;;;;;67.43;26.08;;;;;;;;;;5099022;28;20030;-77
2023/04/23 00:53:32;;;;;;;68.35;27.20;;;7.60;99.90;;;;;;5095788;28;20032;-77
2023/04/23 00:56:01;;;;;;;69.00;26.85;;;7.60;99.90;;;;;;5094563;28;20025;-78
2023/04/23 00:58:28;;;;;;;70.35;27.00;;;7.60;99.90;;;;;;5076223;28;20024;-77
2023/04/23 01:00:53;;;;;;;66.40;27.35;;;7.60;99.90;;;;;;5095317;28;20068;-78
2023/04/23 01:03:20;;;;;;;69.70;26.80;;;7.60;99.90;;;;;;5100653;28;20211;-77
2023/04/23 01:05:48;;;;;;;65.05;26.00;;;7.60;99.90;;;;;;5096903;28;20495;-77
2023/04/23 01:08:15;;;;;;;71.93;26.65;;;7.60;99.90;;;;;;5096748;28;20031;-77
2023/04/23 01:10:46;;;;;;;77.07;26.67;;;7.60;99.90;;;;;;5115033;28;20034;-77
2023/04/23 01:13:15;;;;;;;67.18;25.20;;;7.60;99.90;;;;;;5115257;28;20027;-77
2023/04/23 01:15:43;;;;;;;71.10;25.60;;;7.60;99.90;;;;;;5096745;28;20482;-77
2023/04/23 01:18:09;;;;;;;69.27;25.53;;;7.60;99.90;;;;;;5114016;28;20028;-77
2023/04/23 01:20:36;;;;;;;68.78;26.60;;;7.70;99.90;;;;;;5115128;28;20027;-78
2023/04/23 01:23:02;;;;;;;65.03;26.50;;;7.70;99.90;;;;;;5114941;28;20020;-77
2023/04/23 01:25:28;;;;;;;67.03;24.83;;;7.70;99.90;;;;;;5114744;28;20038;-77
2023/04/23 01:27:56;;;;;;;63.10;25.23;;;7.80;99.90;;;;;;5114658;28;20402;-78
2023/04/23 01:30:22;;;;;;;66.28;25.95;;;7.80;99.90;;;;;;5096465;28;20027;-77
2023/04/23 01:32:49;;;;;;;65.72;27.25;;;7.80;99.90;;;;;;5084376;28;20483;-77
2023/04/23 01:35:14;;;;;;;62.13;25.02;;;7.80;99.90;;;;;;5094087;28;20020;-77
2023/04/23 01:37:42;;;;;;;66.78;25.70;;;7.90;99.90;;;;;;5094434;28;20032;-77
2023/04/23 01:40:09;;;;;;;59.42;24.00;;;7.90;99.90;;;;;;5094000;28;20478;-77
2023/04/23 01:42:34;;;;;;;60.08;24.45;;;7.90;99.90;;;;;;5076085;28;20020;-77
2023/04/23 01:45:01;;;;;;;62.83;25.02;;;7.90;99.90;;;;;;5075872;28;20019;-77
2023/04/23 01:47:27;;;;;;;64.85;24.00;;;8.00;99.90;;;;;;5110454;28;20382;-77
2023/04/23 01:49:53;;;;;;;62.38;23.63;;;8.00;99.90;;;;;;5096038;28;20019;-77
2023/04/23 01:52:19;;;;;;;60.75;24.70;;;8.00;99.90;;;;;;5095957;28;20023;-77
2023/04/23 01:54:45;;;;;;;58.28;23.42;;;8.00;99.90;;;;;;5114092;28;20084;-77
2023/04/23 01:57:10;;;;;;;60.78;24.15;;;8.10;99.90;;;;;;5114155;28;20077;-77
2023/04/23 01:59:37;;;;;;;59.28;24.27;;;8.10;99.90;;;;;;5095914;28;20474;-77
2023/04/23 02:02:02;;;;;;;64.40;24.98;;;8.10;99.90;;;;;;5080031;28;20390;-77
2023/04/23 02:04:28;;;;;;;62.05;24.08;;;8.20;99.90;;;;;;5097064;28;20081;-77
2023/04/23 02:06:54;;;;;;;67.30;23.92;;;8.20;99.90;;;;;;5093569;28;20501;-77
2023/04/23 02:09:20;;;;;;;57.63;23.73;;;8.20;99.90;;;;;;5093311;28;20024;-77
2023/04/23 02:11:46;;;;;;;60.25;23.20;;;8.20;99.90;;;;;;5093460;28;20020;-77
2023/04/23 02:14:12;;;;;;;58.55;22.88;;;8.20;99.90;;;;;;5093803;28;20028;-77
2023/04/23 02:16:38;;;;;;;53.50;21.77;;;8.30;99.90;;;;;;5093501;28;20028;-77
2023/04/23 02:19:04;;;;;;;57.58;22.48;;;8.30;99.90;;;;;;5094575;28;20169;-78
2023/04/23 02:21:30;;;;;;;59.45;24.38;;;8.30;99.90;;;;;;5095402;28;20024;-77
2023/04/23 02:23:56;;;;;;;55.25;22.30;;;8.30;99.90;;;;;;5095518;28;20027;-77
2023/04/23 02:26:23;;;;;;;52.42;21.83;;;8.30;99.90;;;;;;5095986;28;20027;-76
2023/04/23 02:28:49;;;;;;;53.85;22.67;;;8.30;99.90;;;;;;5095542;28;20019;-77
2023/04/23 02:31:16;;;;;;;56.38;22.27;;;8.30;99.90;;;;;;5116519;28;20024;-77
2023/04/23 02:33:42;;;;;;;60.95;23.45;;;8.30;99.90;;;;;;5083713;28;20051;-77
2023/04/23 02:36:09;;;;;;;53.88;22.45;;;8.30;99.90;;;;;;5094703;28;20028;-75
2023/04/23 02:38:35;;;;;;;51.53;21.40;;;8.30;99.90;;;;;;5075238;28;20460;-76
2023/04/23 02:41:00;;;;;;;53.78;21.42;;;8.30;99.90;;;;;;5075239;28;20020;-75
2023/04/23 02:43:26;;;;;;;55.42;21.67;;;8.40;99.90;;;;;;5093783;28;20024;-76
2023/04/23 02:45:51;;;;;;;52.40;21.90;;;8.30;99.90;;;;;;5093267;28;20421;-76
2023/04/23 02:48:17;;;;;;;52.47;20.77;;;8.30;99.90;;;;;;5093436;28;20088;-76
2023/04/23 02:50:43;;;;;;;59.22;23.20;;;8.30;99.90;;;;;;5095401;28;20490;-77
2023/04/23 02:53:08;;;;;;;53.00;22.13;;;8.30;99.90;;;;;;5095350;28;20409;-77
2023/04/23 02:55:34;;;;;;;56.55;22.30;;;8.40;99.90;;;;;;5095407;28;20072;-76
2023/04/23 02:57:59;;;;;;;55.65;22.58;;;8.40;99.90;;;;;;5095171;28;20023;-76
2023/04/23 03:00:26;;;;;;;54.00;21.75;;;8.40;99.90;;;;;;5113395;28;20530;-76
2023/04/23 03:02:52;;;;;;;52.17;20.40;;;8.40;99.90;;;;;;5082269;28;20033;-76
2023/04/23 03:05:17;;;;;;;54.42;21.75;;;8.50;99.90;;;;;;5075061;28;20020;-76
2023/04/23 03:07:45;;;;;;;50.45;21.63;;;8.50;99.90;;;;;;5093193;28;20023;-76
2023/04/23 03:10:11;;;;;;;48.97;20.65;;;8.50;99.90;;;;;;5093102;28;20059;-76
2023/04/23 03:12:37;;;;;;;52.15;20.50;;;8.50;99.90;;;;;;5074862;28;20483;-76
2023/04/23 03:15:02;;;;;;;56.22;21.35;;;8.60;99.90;;;;;;5092935;28;20044;-76
2023/04/23 03:17:29;;;;;;;54.63;21.42;;;;;;;;;;5092176;28;20106;-76
2023/04/23 03:19:55;;;;;;;47.10;20.48;;;8.60;99.90;;;;;;5114061;28;20024;-76
2023/04/23 03:22:20;;;;;;;49.40;20.08;;;8.60;99.90;;;;;;5116918;28;20023;-76
2023/04/23 03:24:46;;;;;;;53.17;19.60;;;10.10;99.90;;;;;;5117632;28;20462;-76
2023/04/23 03:27:11;;;;;;;51.75;20.90;;;8.50;99.90;;;;;;5117015;28;20020;-76
2023/04/23 03:29:37;;;;;;;51.40;20.98;;;8.50;99.90;;;;;;5098683;28;20024;-76
2023/04/23 03:32:03;;;;;;;52.75;20.63;;;8.50;99.90;;;;;;5105398;28;20028;-77
2023/04/23 03:34:28;;;;;;;45.47;19.83;;;8.50;99.90;;;;;;5096817;28;20062;-77
2023/04/23 03:36:54;;;;;;;48.10;19.45;;;8.40;99.90;;;;;;5078337;28;20020;-76
2023/04/23 03:39:19;;;;;;;51.90;20.60;;;9.70;99.90;;;;;;5078428;28;20020;-77
2023/04/23 03:41:45;;;;;;;50.25;20.08;;;8.30;99.90;;;;;;5078062;28;20024;-76
2023/04/23 03:44:11;;;;;;;45.28;19.63;;;8.30;99.90;;;;;;5078647;28;20073;-76
2023/04/23 03:46:37;;;;;;;50.42;20.95;;;8.30;99.90;;;;;;5112171;28;20020;-76
2023/04/23 03:49:02;;;;;;;51.90;20.45;;;8.30;99.90;;;;;;5116591;28;20027;-77
2023/04/23 03:51:28;;;;;;;45.28;19.25;;;8.30;99.90;;;;;;5117188;28;20375;-74
2023/04/23 03:53:53;;;;;;;44.92;18.42;;;8.20;99.90;;;;;;5116527;28;20103;-75
2023/04/23 03:56:20;;;;;;;50.38;20.10;;;8.20;99.90;;;;;;5116407;28;20076;-75
2023/04/23 03:58:45;;;;;;;45.20;18.85;;;8.20;99.90;;;;;;5116416;28;20486;-76
2023/04/23 04:01:11;;;;;;;49.95;20.13;;;8.10;99.90;;;;;;5105870;28;20077;-76
2023/04/23 04:03:36;;;;;;;48.78;18.15;;;8.10;99.90;;;;;;5104225;28;20024;-76
2023/04/23 04:06:02;;;;;;;52.47;19.55;;;8.10;99.90;;;;;;5116215;28;20395;-75
2023/04/23 04:08:28;;;;;;;43.95;20.05;;;8.00;99.90;;;;;;5116152;28;20026;-75
2023/04/23 04:10:54;;;;;;;43.75;19.35;;;8.50;99.90;;;;;;5116187;28;20490;-76
2023/04/23 04:13:20;;;;;;;50.45;19.70;;;7.90;99.90;;;;;;5097966;28;20110;-75
2023/04/23 04:15:46;;;;;;;38.55;17.83;;;7.90;99.90;;;;;;5116160;28;20110;-75
2023/04/23 04:18:11;;;;;;;49.80;16.60;;;7.90;99.90;;;;;;5084439;28;20169;-76
2023/04/23 04:20:37;;;;;;;45.50;18.70;;;7.90;99.90;;;;;;5095577;28;20031;-75
2023/04/23 04:23:03;;;;;;;44.08;17.98;;;7.90;99.90;;;;;;5095709;28;20027;-76
2023/04/23 04:25:28;;;;;;;37.70;17.23;;;7.90;99.90;;;;;;5096217;28;20108;-75
2023/04/23 04:27:54;;;;;;;46.72;18.77;;;8.00;99.90;;;;;;5095607;28;20117;-76
2023/04/23 04:30:22;;;;;;;37.47;16.40;;;8.00;99.90;;;;;;5095590;28;20112;-75
2023/04/23 04:32:49;;;;;;;37.03;16.52;;;8.00;99.90;;;;;;5095402;28;20028;-75
2023/04/23 04:35:15;;;;;;;41.45;17.17;;;8.00;99.90;;;;;;5095350;28;20080;-75
2023/04/23 04:37:42;;;;;;;37.65;16.40;;;8.00;99.90;;;;;;5095821;28;20056;-75
2023/04/23 04:40:10;;;;;;;37.70;16.40;;;7.90;99.90;;;;;;5095800;28;20524;-76
2023/04/23 04:42:36;;;;;;;38.40;15.73;;;7.90;99.90;;;;;;5077169;28;20055;-75
2023/04/23 04:45:03;;;;;;;37.92;16.73;;;8.00;99.90;;;;;;5077085;28;20107;-76
2023/04/23 04:47:28;;;;;;;32.05;14.73;;;7.90;99.90;;;;;;5112322;28;20496;-76
2023/04/23 04:49:56;;;;;;;40.35;16.40;;;7.90;99.90;;;;;;5115418;28;20024;-76
2023/04/23 04:52:22;;;;;;;36.25;15.65;;;7.90;99.90;;;;;;5097120;28;20088;-76
2023/04/23 04:54:48;;;;;;;36.88;16.02;;;7.90;99.90;;;;;;5115410;28;20382;-76
2023/04/23 04:57:13;;;;;;;36.40;15.38;;;7.90;99.90;;;;;;5115206;28;20020;-76
2023/04/23 04:59:39;;;;;;;41.50;16.27;;;7.90;99.90;;;;;;5115209;28;20131;-77
2023/04/23 05:02:05;;;;;;;37.03;15.20;;;7.80;99.90;;;;;;5098848;28;20028;-75
2023/04/23 05:04:30;;;;;;;33.70;15.60;;;7.90;99.90;;;;;;5094683;28;20095;-75
2023/04/23 05:06:56;;;;;;;31.25;14.50;;;;;;;;;;5094599;28;20506;-75
2023/04/23 05:09:22;;;;;;;33.53;14.02;;;7.90;99.90;;;;;;5076585;28;20012;-75
2023/04/23 05:11:47;;;;;;;36.35;14.98;;;7.90;99.90;;;;;;5094562;28;20058;-75
2023/04/23 05:14:13;;;;;;;34.95;14.95;;;8.20;99.90;;;;;;5094843;28;20027;-75
2023/04/23 05:16:39;;;;;;;29.77;13.75;;;7.90;99.90;;;;;;5095423;28;20123;-75
2023/04/23 05:19:05;;;;;;;29.65;14.35;;;7.90;99.90;;;;;;5076354;28;20318;-75
2023/04/23 05:21:30;;;;;;;30.70;13.50;;;7.90;99.90;;;;;;5094325;28;20437;-75
2023/04/23 05:23:56;;;;;;;31.30;14.15;;;7.90;99.90;;;;;;5094304;28;20016;-76
2023/04/23 05:26:22;;;;;;;33.38;13.95;;;8.00;99.90;;;;;;5094305;28;20085;-75
2023/04/23 05:28:47;;;;;;;29.58;13.32;;;8.00;99.90;;;;;;5098352;28;20027;-75
2023/04/23 05:31:13;;;;;;;28.13;13.02;;;8.10;99.90;;;;;;5096364;28;20020;-75
2023/04/23 05:33:39;;;;;;;28.70;13.45;;;8.10;99.90;;;;;;5114588;28;20031;-76
2023/04/23 05:36:04;;;;;;;29.73;13.68;;;8.20;99.90;;;;;;5114529;28;20016;-76
2023/04/23 05:38:30;;;;;;;25.90;12.48;;;8.20;99.90;;;;;;5114434;28;20054;-77
2023/04/23 05:40:56;;;;;;;28.33;13.30;;;8.30;99.90;;;;;;5096143;28;20482;-76
2023/04/23 05:43:22;;;;;;;25.30;12.27;;;8.30;99.90;;;;;;5110951;28;20020;-76
2023/04/23 05:45:47;;;;;;;27.52;13.27;;;8.40;99.90;;;;;;5075904;28;20024;-76
2023/04/23 05:48:13;;;;;;;28.60;13.35;;;8.50;99.90;;;;;;5094088;28;20030;-76
2023/04/23 05:50:38;;;;;;;24.70;12.38;;;8.60;99.90;;;;;;5075773;28;20116;-75
2023/04/23 05:53:04;;;;;;;28.75;12.35;;;8.70;99.90;;;;;;5093967;28;20478;-74
2023/04/23 05:55:30;;;;;;;25.30;12.48;;;8.80;99.90;;;;;;5075627;28;20030;-75
2023/04/23 05:57:55;;;;;;;28.42;13.63;;;8.80;99.90;;;;;;5100536;28;20112;-74
2023/04/23 06:00:21;;;;;;;21.42;11.00;;;8.90;99.90;;;;;;5114046;28;20099;-75
2023/04/23 06:02:46;;;;;;;23.30;12.10;;;9.10;99.90;;;;;;5111988;28;20024;-75
2023/04/23 06:05:12;;;;;;;24.88;12.20;;;9.00;99.90;;;;;;5075444;28;20016;-75
2023/04/23 06:07:38;;;;;;;24.25;11.70;;;9.20;99.90;;;;;;5093546;28;20024;-74
2023/04/23 06:10:04;;;;;;;25.88;12.20;;;9.30;99.90;;;;;;5075779;28;20041;-74
2023/04/23 06:12:31;;;;;;;21.92;11.32;;;9.40;99.90;;;;;;5093664;28;20483;-75
2023/04/23 06:14:56;;;;;;;23.85;11.93;;;9.50;99.90;;;;;;5075431;28;20024;-75
2023/04/23 06:17:22;;;;;;;26.80;13.02;;;9.60;99.90;;;;;;5097322;28;20024;-75
2023/04/23 06:19:47;;;;;;;22.20;11.15;;;9.60;99.90;;;;;;5114222;28;20069;-76
2023/04/23 06:22:13;;;;;;;23.48;11.70;;;9.70;99.90;;;;;;5099129;28;20491;-77
2023/04/23 06:24:38;;;;;;;24.90;11.60;;;9.80;99.90;;;;;;5117410;28;20019;-76
2023/04/23 06:27:04;;;;;;;22.73;12.02;;;10.00;99.90;;;;;;5114921;28;20517;-77
2023/04/23 06:29:30;;;;;;;22.42;11.25;;;10.00;99.90;;;;;;5097658;28;20104;-76
2023/04/23 06:31:56;;;;;;;22.90;11.48;;;10.10;99.90;;;;;;5097231;28;20413;-79
2023/04/23 06:34:22;;;;;;;20.17;10.02;;;10.70;99.90;;;;;;5095538;28;20047;-77
2023/04/23 06:36:49;;;;;;;20.58;10.45;;;10.40;99.90;;;;;;5094952;28;20025;-77
2023/04/23 06:39:15;;;;;;;17.63;9.45;;;10.30;99.90;;;;;;5075364;28;20526;-76
2023/04/23 06:41:40;;;;;;;17.45;9.82;;;10.50;99.90;;;;;;5093153;28;20024;-76
2023/04/23 06:44:06;;;;;;;20.23;10.18;;;10.60;99.90;;;;;;5075169;28;20020;-76
2023/04/23 06:46:34;;;;;;;20.48;9.90;;;10.60;99.90;;;;;;5096973;28;20042;-79
2023/04/23 06:49:00;;;;;;;16.92;9.18;;;10.80;99.90;;;;;;5113531;28;20016;-75
2023/04/23 06:51:26;;;;;;;17.73;9.82;;;10.90;99.90;;;;;;5095301;28;20038;-75
2023/04/23 06:53:52;;;;;;;14.38;8.13;;;11.00;99.90;;;;;;5113389;28;20054;-75
2023/04/23 06:56:18;;;;;;;16.00;8.43;;;11.10;99.90;;;;;;5116556;28;20055;-74
2023/04/23 06:58:43;;;;;;;18.30;8.18;;;11.20;99.90;;;;;;5099233;28;20027;-74
2023/04/23 07:01:10;;;;;;;13.27;6.90;;;13.00;99.90;;;;;;5117435;28;20034;-75
2023/04/23 07:03:36;;;;;;;12.15;6.93;;;12.00;99.90;;;;;;5098202;28;20024;-75
2023/04/23 07:06:02;;;;;;;13.55;7.05;;;11.50;99.90;;;;;;5097085;28;20031;-75
2023/04/23 07:08:27;;;;;;;18.08;8.57;;;11.70;99.90;;;;;;5078704;28;20063;-75
2023/04/23 07:10:53;;;;;;;16.05;7.28;;;11.80;99.90;;;;;;5096899;28;20154;-75
2023/04/23 07:13:19;;;;;;;11.50;6.85;;;11.90;99.90;;;;;;5078701;28;20490;-75
2023/04/23 07:15:45;;;;;;;10.43;6.00;;;12.00;99.90;;;;;;5100013;28;20027;-75
2023/04/23 07:18:11;;;;;;;9.25;5.75;;;12.10;99.90;;;;;;5117081;28;20030;-75
2023/04/23 07:20:37;;;;;;;11.13;6.03;;;12.20;99.90;;;;;;5098623;28;20027;-75
2023/04/23 07:23:03;;;;;;;12.18;5.50;;;12.30;99.90;;;;;;5117090;28;20439;-75
2023/04/23 07:25:29;;;;;;;14.63;5.47;;;12.50;99.90;;;;;;5117012;28;20039;-73
2023/04/23 07:27:55;;;;;;;8.07;4.82;;;12.60;99.90;;;;;;5098752;28;20134;-74
2023/04/23 07:30:22;;;;;;;12.20;4.35;;;13.10;99.90;;;;;;5114889;28;20051;-75
2023/04/23 07:32:48;;;;;;;8.50;4.32;;;12.80;99.90;;;;;;5096521;28;20077;-75
2023/04/23 07:35:14;;;;;;;9.15;4.03;;;12.90;99.90;;;;;;5096861;28;20024;-75
2023/04/23 07:37:39;;;;;;;7.93;3.53;;;13.10;99.90;;;;;;5096406;28;20387;-75
2023/04/23 07:40:06;;;;;;;13.20;5.05;;;;;;;;;;5096318;28;20483;-75
2023/04/23 07:42:32;;;;;;;9.13;4.22;;;13.20;99.90;;;;;;5078083;28;20081;-75
2023/04/23 07:44:57;;;;;;;6.60;3.42;;;13.40;99.90;;;;;;5078754;28;20016;-75
2023/04/23 07:47:23;;;;;;;8.70;4.18;;;13.50;99.90;;;;;;5096169;28;20077;-75
2023/04/23 07:49:48;;;;;;;7.50;3.20;;;13.50;99.90;;;;;;5096143;28;20043;-75
2023/04/23 07:52:15;;;;;;;10.48;3.08;;;13.60;99.90;;;;;;5096086;28;20024;-75
2023/04/23 07:54:41;;;;;;;3.95;2.65;;;13.60;99.90;;;;;;5096110;28;20035;-75
2023/04/23 07:57:07;;;;;;;7.93;3.00;;;13.60;99.90;;;;;;5077835;28;20028;-75
2023/04/23 07:59:32;;;;;;;8.95;3.85;;;13.70;99.90;;;;;;5100664;28;20030;-74
2023/04/23 08:01:58;;;;;;;5.00;3.03;;;13.80;99.90;;;;;;5116336;28;20072;-75
2023/04/23 08:04:24;;;;;;;7.40;2.40;;;13.90;99.90;;;;;;5115652;28;20028;-75
2023/04/23 08:06:50;;;;;;;4.90;2.22;;;14.00;99.90;;;;;;5100992;28;20065;-74
2023/04/23 08:09:16;;;;;;;6.13;2.22;;;14.10;99.90;;;;;;5095904;28;20081;-75
2023/04/23 08:11:42;;;;;;;10.27;3.47;;;14.10;99.90;;;;;;5095771;28;20028;-74
2023/04/23 08:14:07;;;;;;;6.60;1.77;;;14.10;99.90;;;;;;5095763;28;20047;-75
2023/04/23 08:16:33;;;;;;;14.68;2.85;;;;;;;;;;5077507;28;20028;-74
2023/04/23 08:18:59;;;;;;;8.52;2.72;;;14.30;99.90;;;;;;5096978;28;20118;-74
2023/04/23 08:21:26;;;;;;;8.23;2.25;;;14.30;99.90;;;;;;5097523;28;20114;-75
2023/04/23 08:23:52;;;;;;;5.40;2.28;;;14.40;99.90;;;;;;5116484;28;20490;-75
2023/04/23 08:26:17;;;;;;;4.72;1.80;;;14.50;99.90;;;;;;5116117;28;20020;-75
2023/04/23 08:28:44;;;;;;;7.75;1.70;;;14.40;99.90;;;;;;5115710;28;20027;-75
2023/04/23 08:31:10;;;;;;;5.93;1.30;;;14.50;99.90;;;;;;5097543;28;20023;-75
2023/04/23 08:33:35;;;;;;;12.50;2.13;;;14.60;99.90;;;;;;5097089;28;20043;-75
2023/04/23 08:36:01;;;;;;;13.55;1.85;;;15.20;99.90;;;;;;5095328;28;20028;-75
2023/04/23 08:38:27;;;;;;;7.95;1.58;;;14.70;99.90;;;;;;5095193;28;20027;-74
2023/04/23 08:40:56;;;;;;;7.13;1.17;;;14.80;99.90;;;;;;5095048;28;20020;-76
2023/04/23 08:43:31;;;;;;;6.55;2.17;;;14.80;99.90;;;;;;5095205;28;20016;-76
2023/04/23 08:46:03;;;;;;;9.60;1.38;;;15.00;99.90;;;;;;5098936;28;20011;-75
2023/04/23 08:48:29;;;;;;;7.28;1.13;;;15.10;99.90;;;;;;5076630;28;20040;-76
2023/04/23 08:50:59;;;;;;;5.43;1.00;;;15.20;99.90;;;;;;5095143;28;20026;-75
2023/04/23 08:53:28;;;;;;;4.32;1.48;;;15.40;99.90;;;;;;5094983;28;20026;-76
2023/04/23 08:55:55;;;;;;;6.13;1.77;;;15.30;99.90;;;;;;5076754;28;20012;-77
2023/04/23 08:58:21;;;;;;;12.02;1.20;;;15.50;99.90;;;;;;5076530;28;20387;-76
2023/04/23 09:00:48;;;;;;;4.72;0.90;;;15.50;99.90;;;;;;5076737;28;20027;-76
2023/04/23 09:03:16;;;;;;;5.43;1.55;;;15.60;99.90;;;;;;5097046;28;20055;-76
2023/04/23 09:05:43;;;;;;;7.72;1.25;;;15.70;99.90;;;;;;5096758;28;20011;-76
2023/04/23 09:08:09;;;;;;;4.47;0.75;;;15.80;99.90;;;;;;5115058;28;20067;-76
2023/04/23 09:10:37;;;;;;;7.57;1.15;;;15.90;99.90;;;;;;5096788;28;20020;-76
2023/04/23 09:13:03;;;;;;;5.28;0.93;;;15.90;99.90;;;;;;5096192;28;20023;-76
2023/04/23 09:15:29;;;;;;;6.25;1.77;;;16.00;99.90;;;;;;5088268;28;20597;-76
2023/04/23 09:17:54;;;;;;;9.43;1.83;;;15.90;99.90;;;;;;5074161;28;20039;-76
2023/04/23 09:20:20;;;;;;;3.08;0.60;;;15.90;99.90;;;;;;5094192;28;20020;-76
2023/04/23 09:22:48;;;;;;;12.10;1.88;;;15.90;99.90;;;;;;5094529;28;20131;-76
2023/04/23 09:25:22;;;;;;;6.68;2.13;;;15.80;99.90;;;;;;5075975;28;20107;-76
2023/04/23 09:27:50;;;;;;;5.65;0.43;;;16.10;99.90;;;;;;5075963;28;20133;-74
2023/04/23 09:30:17;;;;;;;7.05;1.23;;;16.10;99.90;;;;;;5076862;28;20352;-76
2023/04/23 09:32:44;;;;;;;5.47;1.13;;;16.30;99.90;;;;;;5076036;28;20099;-76
2023/04/23 09:35:15;;;;;;;5.78;1.00;;;16.50;99.90;;;;;;5075965;28;20020;-76
2023/04/23 09:37:47;;;;;;;9.32;0.63;;;16.40;99.90;;;;;;5075901;28;20360;-76
2023/04/23 09:40:14;;;;;;;8.85;0.95;;;16.40;99.90;;;;;;5094082;28;20454;-76
2023/04/23 09:42:45;;;;;;;7.65;1.85;;;16.60;99.90;;;;;;5075825;28;20042;-76
2023/04/23 09:45:11;;;;;;;6.63;0.47;;;16.60;99.90;;;;;;5103468;28;20065;-76
2023/04/23 09:47:38;;;;;;;1.85;0.20;;;16.50;99.90;;;;;;5113865;28;20031;-76
2023/04/23 09:50:05;;;;;;;10.75;1.45;;;17.20;99.90;;;;;;5114185;28;20027;-76
2023/04/23 09:52:31;;;;;;;4.70;1.13;;;16.50;99.90;;;;;;5114102;28;20076;-76
2023/04/23 09:55:00;;;;;;;7.43;0.95;;;17.10;99.90;;;;;;5096021;28;20020;-76
2023/04/23 09:57:26;;;;;;;7.88;0.40;;;16.70;99.90;;;;;;5113900;28;20019;-76
2023/04/23 09:59:52;;;;;;;5.68;0.80;;;16.70;99.90;;;;;;5114210;28;20015;-76
2023/04/23 10:02:18;;;;;;;4.93;0.93;;;17.40;99.90;;;;;;5094088;28;20027;-76
2023/04/23 10:04:44;;;;;;;6.72;0.68;;;16.60;99.90;;;;;;5095262;28;20034;-76
2023/04/23 10:07:12;;;;;;;6.25;0.93;;;16.60;99.90;;;;;;5095594;28;20115;-76
2023/04/23 10:09:40;;;;;;;6.40;0.38;;;16.60;99.90;;;;;;5095730;28;20020;-76
2023/04/23 10:12:07;;;;;;;4.72;0.52;;;16.60;99.90;;;;;;5095577;28;20042;-76
2023/04/23 10:14:33;;;;;;;2.33;0.70;;;16.50;99.90;;;;;;5095642;28;20076;-74
2023/04/23 10:17:01;;;;;;;2.88;0.35;;;16.50;99.90;;;;;;5110555;28;20028;-76
2023/04/23 10:19:28;;;;;;;7.28;0.60;;;16.20;99.90;;;;;;5093341;28;20086;-75
2023/04/23 10:21:56;;;;;;;5.63;0.50;;;16.60;99.90;;;;;;5075117;28;20070;-76
2023/04/23 10:24:29;;;;;;;6.05;0.80;;;16.70;99.90;;;;;;5075308;28;20069;-76
2023/04/23 10:27:01;;;;;;;6.85;0.52;;;17.00;99.90;;;;;;5075262;28;20024;-76
2023/04/23 10:29:29;;;;;;;2.72;0.22;;;17.20;99.90;;;;;;5093640;28;20039;-76
2023/04/23 10:31:59;;;;;;;3.10;0.20;;;17.40;99.90;;;;;;5079628;28;20153;-76
2023/04/23 10:34:27;;;;;;;5.35;0.77;;;17.50;99.90;;;;;;5095405;28;20031;-76
2023/04/23 10:36:54;;;;;;;1.73;0.10;;;17.90;99.90;;;;;;5113558;28;20027;-76
2023/04/23 10:39:21;;;;;;;4.25;0.08;;;17.90;99.90;;;;;;5113528;28;20023;-76
2023/04/23 10:41:47;;;;;;;6.85;0.73;;;17.90;99.90;;;;;;5113431;28;20024;-76
2023/04/23 10:44:15;;;;;;;3.45;0.10;;;17.90;99.90;;;;;;5113565;28;20604;-76
2023/04/23 10:46:50;;;;;;;2.22;0.20;;;18.00;99.90;;;;;;5102285;28;20475;-76
2023/04/23 10:49:16;;;;;;;5.95;0.10;;;18.00;99.90;;;;;;5075013;28;20027;-76
2023/04/23 10:51:46;;;;;;;3.33;0.63;;;18.70;99.90;;;;;;5093100;28;20028;-77
2023/04/23 10:54:15;;;;;;;2.92;0.20;;;18.00;99.90;;;;;;5075041;28;20509;-76
2023/04/23 10:56:42;;;;;;;6.40;0.40;;;17.90;99.90;;;;;;5074783;28;20031;-77
2023/04/23 10:59:17;;;;;;;5.30;0.40;;;17.90;99.90;;;;;;5074842;28;20504;-77
2023/04/23 11:01:55;;;;;;;1.38;0.15;;;18.00;99.90;;;;;;5097180;28;20110;-76
2023/04/23 11:04:28;;;;;;;5.07;0.30;;;17.90;99.90;;;;;;5093184;28;20383;-76
2023/04/23 11:06:56;;;;;;;4.65;0.20;;;18.00;99.90;;;;;;5093427;28;20024;-77
2023/04/23 11:09:33;;;;;;;5.60;0.20;;;17.90;99.90;;;;;;5074927;28;20019;-77
2023/04/23 11:12:00;;;;;;;4.75;0.15;;;18.00;99.90;;;;;;5074829;28;20433;-76
2023/04/23 11:14:44;;;;;;;1.95;0.00;;;18.10;99.90;;;;;;5074702;28;20398;-76
2023/04/23 11:17:12;;;;;;;6.68;0.25;;;18.10;99.90;;;;;;5093892;28;20036;-76
2023/04/23 11:19:38;;;;;;;3.92;0.30;;;18.20;99.90;;;;;;5092922;28;20057;-76
2023/04/23 11:22:19;;;;;;;4.47;0.40;;;18.10;99.90;;;;;;5092700;28;20024;-76
2023/04/23 11:24:45;;;;;;;5.53;0.40;;;18.20;99.90;;;;;;5092901;28;20035;-76
2023/04/23 11:27:12;;;;;;;5.40;0.40;;;18.30;99.90;;;;;;5074826;28;20085;-76
2023/04/23 11:29:40;;;;;;;2.10;0.43;;;18.30;99.90;;;;;;5092797;28;20020;-76
2023/04/23 11:32:09;;;;;;;3.50;0.38;;;18.20;99.90;;;;;;5100184;28;20494;-76
2023/04/23 11:34:45;;;;;;;2.80;0.20;;;18.30;99.90;;;;;;5094857;28;20098;-76
2023/04/23 11:37:13;;;;;;;2.03;0.10;;;18.60;99.90;;;;;;5113060;28;20091;-76
2023/04/23 11:39:43;;;;;;;5.53;0.30;;;18.60;99.90;;;;;;5094705;28;20017;-76
2023/04/23 11:42:10;;;;;;;3.38;0.38;;;18.70;99.90;;;;;;5115912;28;20031;-76
2023/04/23 11:44:40;;;;;;;4.65;0.43;;;18.80;99.90;;;;;;5116724;28;20544;-76
2023/04/23 11:47:07;;;;;;;2.88;0.40;;;19.00;99.90;;;;;;5100314;28;20024;-76
2023/04/23 11:49:33;;;;;;;2.85;0.00;;;19.20;99.90;;;;;;5078102;28;20107;-76
2023/04/23 11:52:00;;;;;;;1.35;0.10;;;18.90;99.20;;;;;;5078056;28;20134;-77
2023/04/23 11:54:28;;;;;;;2.05;0.30;;;18.80;99.90;;;;;;5077989;28;20032;-77
2023/04/23 11:56:55;;;;;;;0.73;0.00;;;18.70;99.90;;;;;;5096114;28;20035;-77
2023/04/23 11:59:21;;;;;;;2.28;0.00;;;18.70;99.90;;;;;;5077932;28;20027;-77
2023/04/23 12:01:50;;;;;;;1.65;0.05;;;18.60;99.90;;;;;;5111151;28;20035;-76
2023/04/23 12:04:18;;;;;;;;;;;18.60;99.90;;;;;;5102246;28;20043;-77
2023/04/23 12:06:45;;;;;;;10.50;0.60;;;18.50;99.90;;;;;;5077696;28;19904;-77
2023/04/23 12:09:12;;;;;;;3.13;0.00;;;18.50;99.90;;;;;;5095855;28;20016;-77
2023/04/23 12:11:39;;;;;;;2.28;0.00;;;18.50;99.90;;;;;;5095773;28;20093;-77
2023/04/23 12:14:07;;;;;;;3.22;0.35;;;18.50;99.90;;;;;;5077703;28;20395;-77
2023/04/23 12:16:37;;;;;;;1.67;0.00;;;;;;;;;;5095661;28;20023;-77
2023/04/23 12:19:03;;;;;;;2.83;0.28;;;18.50;99.90;;;;;;5077409;28;20032;-77
2023/04/23 12:21:29;;;;;;;3.13;0.00;;;18.40;99.90;;;;;;5095377;28;20032;-77
2023/04/23 12:23:56;;;;;;;3.17;0.30;;;18.50;99.90;;;;;;5077419;28;20029;-77
2023/04/23 12:26:25;;;;;;;4.18;0.30;;;18.80;99.90;;;;;;5077430;28;20479;-77
2023/04/23 12:28:51;;;;;;;2.70;0.00;;;18.50;99.90;;;;;;5095374;28;20012;-77
2023/04/23 12:31:28;;;;;;;3.88;0.40;;;18.50;99.90;;;;;;5077306;28;20483;-77
2023/04/23 12:34:18;;;;;;;4.07;0.40;;;18.70;99.90;;;;;;5095436;28;20081;-77
2023/04/23 12:36:54;;;;;;;2.83;0.28;;;18.90;99.90;;;;;;5095379;28;20020;-77
2023/04/23 12:39:32;;;;;;;1.52;0.00;;;19.00;99.90;;;;;;5077167;28;20089;-77
2023/04/23 12:42:03;;;;;;;1.15;0.10;;;19.10;99.90;;;;;;5095192;28;20035;-77